sensor_id;sensor_type;location;lat;lon;timestamp;P1;durP1;ratioP1;P2;durP2;ratioP2
17812;SDS011;9030;50.792;8.320;2022-08-18T00:01:54;39.10;;;36.03;;
17812;SDS011;9030;50.792;8.320;2022-08-18T00:04:27;36.53;;;33.30;;
17812;SDS011;9030;50.792;8.320;2022-08-18T00:06:53;31.52;;;28.92;;
17812;SDS011;9030;50.792;8.320;2022-08-18T00:09:21;31.98;;;28.63;;
17812;SDS011;9030;50.792;8.320;2022-08-18T00:11:48;31.48;;;28.75;;
17812;SDS011;9030;50.792;8.320;2022-08-18T00:14:15;30.75;;;28.05;;
17812;SDS011;9030;50.792;8.320;2022-08-18T00:16:44;30.17;;;27.83;;
17812;SDS011;9030;50.792;8.320;2022-08-18T00:19:10;29.50;;;27.20;;
17812;SDS011;9030;50.792;8.320;2022-08-18T00:21:37;31.05;;;28.55;;
17812;SDS011;9030;50.792;8.320;2022-08-18T00:24:04;31.00;;;28.30;;
17812;SDS011;9030;50.792;8.320;2022-08-18T00:26:32;32.15;;;29.33;;
17812;SDS011;9030;50.792;8.320;2022-08-18T00:28:59;31.70;;;28.80;;
17812;SDS011;9030;50.792;8.320;2022-08-18T00:31:26;33.38;;;30.65;;
17812;SDS011;9030;50.792;8.320;2022-08-18T00:33:53;30.55;;;27.90;;
17812;SDS011;9030;50.792;8.320;2022-08-18T00:36:20;33.70;;;31.00;;
17812;SDS011;9030;50.792;8.320;2022-08-18T00:38:47;37.20;;;34.10;;
17812;SDS011;9030;50.792;8.320;2022-08-18T00:41:13;33.08;;;30.45;;
17812;SDS011;9030;50.792;8.320;2022-08-18T00:43:42;33.38;;;30.73;;
17812;SDS011;9030;50.792;8.320;2022-08-18T00:46:13;40.22;;;37.10;;
17812;SDS011;9030;50.792;8.320;2022-08-18T00:48:42;31.25;;;28.85;;
17812;SDS011;9030;50.792;8.320;2022-08-18T00:51:09;29.88;;;27.42;;
17812;SDS011;9030;50.792;8.320;2022-08-18T00:53:40;32.95;;;30.08;;
17812;SDS011;9030;50.792;8.320;2022-08-18T00:56:11;32.30;;;29.90;;
17812;SDS011;9030;50.792;8.320;2022-08-18T00:58:43;32.40;;;29.50;;
17812;SDS011;9030;50.792;8.320;2022-08-18T01:01:13;32.83;;;30.13;;
17812;SDS011;9030;50.792;8.320;2022-08-18T01:03:44;34.15;;;31.15;;
17812;SDS011;9030;50.792;8.320;2022-08-18T01:06:20;36.00;;;33.28;;
17812;SDS011;9030;50.792;8.320;2022-08-18T01:08:53;31.60;;;29.20;;
17812;SDS011;9030;50.792;8.320;2022-08-18T01:11:20;35.47;;;32.65;;
17812;SDS011;9030;50.792;8.320;2022-08-18T01:13:48;39.88;;;36.50;;
17812;SDS011;9030;50.792;8.320;2022-08-18T01:16:16;37.72;;;34.72;;
17812;SDS011;9030;50.792;8.320;2022-08-18T01:19:01;31.92;;;29.33;;
17812;SDS011;9030;50.792;8.320;2022-08-18T01:21:47;35.30;;;32.30;;
17812;SDS011;9030;50.792;8.320;2022-08-18T01:24:23;35.53;;;32.70;;
17812;SDS011;9030;50.792;8.320;2022-08-18T01:27:13;35.55;;;32.75;;
17812;SDS011;9030;50.792;8.320;2022-08-18T01:29:42;35.65;;;32.88;;
17812;SDS011;9030;50.792;8.320;2022-08-18T01:32:09;39.80;;;36.70;;
17812;SDS011;9030;50.792;8.320;2022-08-18T01:34:37;33.67;;;30.98;;
17812;SDS011;9030;50.792;8.320;2022-08-18T01:37:04;36.55;;;33.72;;
17812;SDS011;9030;50.792;8.320;2022-08-18T01:39:32;33.67;;;31.05;;
17812;SDS011;9030;50.792;8.320;2022-08-18T01:41:59;33.83;;;30.95;;
17812;SDS011;9030;50.792;8.320;2022-08-18T01:44:28;35.53;;;32.63;;
17812;SDS011;9030;50.792;8.320;2022-08-18T01:46:55;36.22;;;33.20;;
17812;SDS011;9030;50.792;8.320;2022-08-18T01:49:22;38.03;;;35.17;;
17812;SDS011;9030;50.792;8.320;2022-08-18T01:51:48;34.33;;;31.67;;
17812;SDS011;9030;50.792;8.320;2022-08-18T01:54:16;37.20;;;34.25;;
17812;SDS011;9030;50.792;8.320;2022-08-18T01:56:44;38.05;;;35.00;;
17812;SDS011;9030;50.792;8.320;2022-08-18T01:59:12;44.58;;;41.28;;
17812;SDS011;9030;50.792;8.320;2022-08-18T02:01:40;47.40;;;43.90;;
17812;SDS011;9030;50.792;8.320;2022-08-18T02:04:08;35.55;;;32.72;;
17812;SDS011;9030;50.792;8.320;2022-08-18T02:06:36;32.75;;;30.33;;
17812;SDS011;9030;50.792;8.320;2022-08-18T02:09:04;37.95;;;34.95;;
17812;SDS011;9030;50.792;8.320;2022-08-18T02:11:30;37.80;;;34.70;;
17812;SDS011;9030;50.792;8.320;2022-08-18T02:13:59;46.67;;;42.95;;
17812;SDS011;9030;50.792;8.320;2022-08-18T02:16:26;41.58;;;38.22;;
17812;SDS011;9030;50.792;8.320;2022-08-18T02:18:53;37.20;;;34.40;;
17812;SDS011;9030;50.792;8.320;2022-08-18T02:21:20;46.50;;;43.20;;
17812;SDS011;9030;50.792;8.320;2022-08-18T02:23:47;48.35;;;44.95;;
17812;SDS011;9030;50.792;8.320;2022-08-18T02:26:15;46.83;;;42.88;;
17812;SDS011;9030;50.792;8.320;2022-08-18T02:28:43;40.17;;;36.75;;
17812;SDS011;9030;50.792;8.320;2022-08-18T02:31:12;36.88;;;33.88;;
17812;SDS011;9030;50.792;8.320;2022-08-18T02:33:41;39.53;;;36.58;;
17812;SDS011;9030;50.792;8.320;2022-08-18T02:36:08;35.10;;;32.13;;
17812;SDS011;9030;50.792;8.320;2022-08-18T02:38:35;36.53;;;32.90;;
17812;SDS011;9030;50.792;8.320;2022-08-18T02:41:02;37.08;;;33.28;;
17812;SDS011;9030;50.792;8.320;2022-08-18T02:43:33;37.47;;;34.42;;
17812;SDS011;9030;50.792;8.320;2022-08-18T02:46:00;37.08;;;34.28;;
17812;SDS011;9030;50.792;8.320;2022-08-18T02:48:28;44.90;;;41.38;;
17812;SDS011;9030;50.792;8.320;2022-08-18T02:50:59;38.72;;;35.85;;
17812;SDS011;9030;50.792;8.320;2022-08-18T02:53:27;37.72;;;34.60;;
17812;SDS011;9030;50.792;8.320;2022-08-18T02:55:54;46.55;;;43.03;;
17812;SDS011;9030;50.792;8.320;2022-08-18T02:58:21;41.33;;;38.03;;
17812;SDS011;9030;50.792;8.320;2022-08-18T03:00:47;41.85;;;38.78;;
17812;SDS011;9030;50.792;8.320;2022-08-18T03:03:14;35.90;;;33.15;;
17812;SDS011;9030;50.792;8.320;2022-08-18T03:05:42;37.45;;;34.55;;
17812;SDS011;9030;50.792;8.320;2022-08-18T03:08:09;38.15;;;35.42;;
17812;SDS011;9030;50.792;8.320;2022-08-18T03:10:36;40.13;;;37.00;;
17812;SDS011;9030;50.792;8.320;2022-08-18T03:13:03;43.00;;;39.58;;
17812;SDS011;9030;50.792;8.320;2022-08-18T03:15:30;39.97;;;36.97;;
17812;SDS011;9030;50.792;8.320;2022-08-18T03:17:57;38.70;;;35.83;;
17812;SDS011;9030;50.792;8.320;2022-08-18T03:20:26;46.92;;;43.22;;
17812;SDS011;9030;50.792;8.320;2022-08-18T03:22:54;47.55;;;44.05;;
17812;SDS011;9030;50.792;8.320;2022-08-18T03:25:21;41.95;;;38.83;;
17812;SDS011;9030;50.792;8.320;2022-08-18T03:27:48;48.60;;;44.85;;
17812;SDS011;9030;50.792;8.320;2022-08-18T03:30:15;41.38;;;38.35;;
17812;SDS011;9030;50.792;8.320;2022-08-18T03:32:41;46.00;;;42.70;;
17812;SDS011;9030;50.792;8.320;2022-08-18T03:35:08;44.72;;;41.33;;
17812;SDS011;9030;50.792;8.320;2022-08-18T03:37:35;40.67;;;37.58;;
17812;SDS011;9030;50.792;8.320;2022-08-18T03:40:03;45.45;;;41.72;;
17812;SDS011;9030;50.792;8.320;2022-08-18T03:42:31;42.42;;;39.22;;
17812;SDS011;9030;50.792;8.320;2022-08-18T03:44:58;42.10;;;38.75;;
17812;SDS011;9030;50.792;8.320;2022-08-18T03:47:24;40.80;;;37.38;;
17812;SDS011;9030;50.792;8.320;2022-08-18T03:49:52;40.15;;;37.20;;
17812;SDS011;9030;50.792;8.320;2022-08-18T03:52:19;53.40;;;48.92;;
17812;SDS011;9030;50.792;8.320;2022-08-18T03:54:45;49.10;;;45.55;;
17812;SDS011;9030;50.792;8.320;2022-08-18T03:57:13;48.75;;;44.88;;
17812;SDS011;9030;50.792;8.320;2022-08-18T03:59:40;41.42;;;38.03;;
17812;SDS011;9030;50.792;8.320;2022-08-18T04:02:08;38.60;;;35.67;;
17812;SDS011;9030;50.792;8.320;2022-08-18T04:04:36;47.35;;;43.63;;
17812;SDS011;9030;50.792;8.320;2022-08-18T04:07:05;46.17;;;42.55;;
17812;SDS011;9030;50.792;8.320;2022-08-18T04:09:34;43.92;;;40.63;;
17812;SDS011;9030;50.792;8.320;2022-08-18T04:12:03;44.83;;;41.60;;
17812;SDS011;9030;50.792;8.320;2022-08-18T04:14:37;49.60;;;46.08;;
17812;SDS011;9030;50.792;8.320;2022-08-18T04:17:06;54.80;;;50.50;;
17812;SDS011;9030;50.792;8.320;2022-08-18T04:19:33;42.65;;;39.25;;
17812;SDS011;9030;50.792;8.320;2022-08-18T04:22:01;40.47;;;37.35;;
17812;SDS011;9030;50.792;8.320;2022-08-18T04:24:30;40.22;;;36.80;;
17812;SDS011;9030;50.792;8.320;2022-08-18T04:26:58;37.63;;;34.60;;
17812;SDS011;9030;50.792;8.320;2022-08-18T04:29:27;42.70;;;39.42;;
17812;SDS011;9030;50.792;8.320;2022-08-18T04:31:55;37.75;;;34.67;;
17812;SDS011;9030;50.792;8.320;2022-08-18T04:34:25;52.45;;;48.60;;
17812;SDS011;9030;50.792;8.320;2022-08-18T04:36:52;49.72;;;46.13;;
17812;SDS011;9030;50.792;8.320;2022-08-18T04:39:19;45.55;;;42.05;;
17812;SDS011;9030;50.792;8.320;2022-08-18T04:41:46;42.78;;;39.40;;
17812;SDS011;9030;50.792;8.320;2022-08-18T04:44:13;40.10;;;36.92;;
17812;SDS011;9030;50.792;8.320;2022-08-18T04:46:42;44.70;;;41.53;;
17812;SDS011;9030;50.792;8.320;2022-08-18T04:49:13;40.55;;;37.55;;
17812;SDS011;9030;50.792;8.320;2022-08-18T04:51:42;51.08;;;47.30;;
17812;SDS011;9030;50.792;8.320;2022-08-18T04:54:29;48.20;;;44.38;;
17812;SDS011;9030;50.792;8.320;2022-08-18T04:56:56;44.20;;;40.65;;
17812;SDS011;9030;50.792;8.320;2022-08-18T04:59:22;46.10;;;42.80;;
17812;SDS011;9030;50.792;8.320;2022-08-18T05:01:49;45.90;;;42.72;;
17812;SDS011;9030;50.792;8.320;2022-08-18T05:04:17;44.88;;;41.38;;
17812;SDS011;9030;50.792;8.320;2022-08-18T05:06:44;42.67;;;39.67;;
17812;SDS011;9030;50.792;8.320;2022-08-18T05:09:13;43.22;;;39.95;;
17812;SDS011;9030;50.792;8.320;2022-08-18T05:11:40;42.70;;;38.95;;
17812;SDS011;9030;50.792;8.320;2022-08-18T05:14:08;41.03;;;37.92;;
17812;SDS011;9030;50.792;8.320;2022-08-18T05:16:35;45.22;;;41.83;;
17812;SDS011;9030;50.792;8.320;2022-08-18T05:19:04;46.53;;;43.13;;
17812;SDS011;9030;50.792;8.320;2022-08-18T05:21:35;41.90;;;38.83;;
17812;SDS011;9030;50.792;8.320;2022-08-18T05:24:05;43.05;;;39.60;;
17812;SDS011;9030;50.792;8.320;2022-08-18T05:26:33;46.08;;;42.67;;
17812;SDS011;9030;50.792;8.320;2022-08-18T05:29:00;46.83;;;43.45;;
17812;SDS011;9030;50.792;8.320;2022-08-18T05:31:27;43.25;;;39.95;;
17812;SDS011;9030;50.792;8.320;2022-08-18T05:33:54;39.17;;;36.38;;
17812;SDS011;9030;50.792;8.320;2022-08-18T05:36:26;41.83;;;38.67;;
17812;SDS011;9030;50.792;8.320;2022-08-18T05:39:08;48.33;;;44.63;;
17812;SDS011;9030;50.792;8.320;2022-08-18T05:41:41;46.50;;;42.95;;
17812;SDS011;9030;50.792;8.320;2022-08-18T05:44:11;47.25;;;43.85;;
17812;SDS011;9030;50.792;8.320;2022-08-18T05:46:41;52.38;;;48.63;;
17812;SDS011;9030;50.792;8.320;2022-08-18T05:49:12;41.97;;;38.83;;
17812;SDS011;9030;50.792;8.320;2022-08-18T05:51:42;42.38;;;38.88;;
17812;SDS011;9030;50.792;8.320;2022-08-18T05:54:11;41.88;;;38.58;;
17812;SDS011;9030;50.792;8.320;2022-08-18T05:57:00;40.40;;;37.33;;
17812;SDS011;9030;50.792;8.320;2022-08-18T05:59:30;45.80;;;41.65;;
17812;SDS011;9030;50.792;8.320;2022-08-18T06:02:00;47.08;;;43.13;;
17812;SDS011;9030;50.792;8.320;2022-08-18T06:04:36;45.95;;;42.33;;
17812;SDS011;9030;50.792;8.320;2022-08-18T06:07:10;40.03;;;36.95;;
17812;SDS011;9030;50.792;8.320;2022-08-18T06:09:40;43.05;;;39.55;;
17812;SDS011;9030;50.792;8.320;2022-08-18T06:12:16;44.80;;;40.88;;
17812;SDS011;9030;50.792;8.320;2022-08-18T06:14:49;54.83;;;50.47;;
17812;SDS011;9030;50.792;8.320;2022-08-18T06:17:25;46.75;;;43.05;;
17812;SDS011;9030;50.792;8.320;2022-08-18T06:20:10;44.65;;;41.08;;
17812;SDS011;9030;50.792;8.320;2022-08-18T06:22:46;46.05;;;42.45;;
17812;SDS011;9030;50.792;8.320;2022-08-18T06:25:22;44.63;;;40.97;;
17812;SDS011;9030;50.792;8.320;2022-08-18T06:27:54;41.85;;;38.65;;
17812;SDS011;9030;50.792;8.320;2022-08-18T06:30:26;42.20;;;38.67;;
17812;SDS011;9030;50.792;8.320;2022-08-18T06:33:09;44.63;;;40.67;;
17812;SDS011;9030;50.792;8.320;2022-08-18T06:35:43;43.47;;;40.15;;
17812;SDS011;9030;50.792;8.320;2022-08-18T06:38:17;39.03;;;35.88;;
17812;SDS011;9030;50.792;8.320;2022-08-18T06:41:11;38.22;;;35.13;;
17812;SDS011;9030;50.792;8.320;2022-08-18T06:43:44;40.08;;;37.08;;
17812;SDS011;9030;50.792;8.320;2022-08-18T06:46:25;43.97;;;40.13;;
17812;SDS011;9030;50.792;8.320;2022-08-18T06:49:03;37.63;;;34.63;;
17812;SDS011;9030;50.792;8.320;2022-08-18T06:51:32;43.00;;;39.78;;
17812;SDS011;9030;50.792;8.320;2022-08-18T06:54:02;40.97;;;37.97;;
17812;SDS011;9030;50.792;8.320;2022-08-18T06:56:46;40.63;;;37.38;;
17812;SDS011;9030;50.792;8.320;2022-08-18T06:59:17;40.00;;;36.80;;
17812;SDS011;9030;50.792;8.320;2022-08-18T07:01:46;50.72;;;46.92;;
17812;SDS011;9030;50.792;8.320;2022-08-18T07:04:29;44.20;;;40.67;;
17812;SDS011;9030;50.792;8.320;2022-08-18T07:07:28;44.70;;;41.22;;
17812;SDS011;9030;50.792;8.320;2022-08-18T07:09:58;39.47;;;36.58;;
17812;SDS011;9030;50.792;8.320;2022-08-18T07:12:26;45.38;;;41.97;;
17812;SDS011;9030;50.792;8.320;2022-08-18T07:14:56;41.55;;;38.40;;
17812;SDS011;9030;50.792;8.320;2022-08-18T07:17:26;44.78;;;41.38;;
17812;SDS011;9030;50.792;8.320;2022-08-18T07:20:04;43.42;;;39.88;;
17812;SDS011;9030;50.792;8.320;2022-08-18T07:22:43;44.15;;;40.83;;
17812;SDS011;9030;50.792;8.320;2022-08-18T07:25:20;41.63;;;38.63;;
17812;SDS011;9030;50.792;8.320;2022-08-18T07:27:51;43.35;;;39.88;;
17812;SDS011;9030;50.792;8.320;2022-08-18T07:30:29;41.28;;;38.08;;
17812;SDS011;9030;50.792;8.320;2022-08-18T07:32:59;45.70;;;42.03;;
17812;SDS011;9030;50.792;8.320;2022-08-18T07:35:35;50.72;;;47.00;;
17812;SDS011;9030;50.792;8.320;2022-08-18T07:38:07;58.60;;;53.88;;
17812;SDS011;9030;50.792;8.320;2022-08-18T07:40:44;54.15;;;49.95;;
17812;SDS011;9030;50.792;8.320;2022-08-18T07:43:16;64.18;;;59.20;;
17812;SDS011;9030;50.792;8.320;2022-08-18T07:45:48;66.70;;;61.65;;
17812;SDS011;9030;50.792;8.320;2022-08-18T07:48:15;61.00;;;56.25;;
17812;SDS011;9030;50.792;8.320;2022-08-18T07:50:44;61.42;;;56.53;;
17812;SDS011;9030;50.792;8.320;2022-08-18T07:53:18;68.53;;;63.00;;
17812;SDS011;9030;50.792;8.320;2022-08-18T07:55:57;72.15;;;66.68;;
17812;SDS011;9030;50.792;8.320;2022-08-18T07:58:29;62.60;;;57.40;;
17812;SDS011;9030;50.792;8.320;2022-08-18T08:01:02;63.50;;;58.38;;
17812;SDS011;9030;50.792;8.320;2022-08-18T08:03:35;71.47;;;65.45;;
17812;SDS011;9030;50.792;8.320;2022-08-18T08:06:10;67.03;;;61.70;;
17812;SDS011;9030;50.792;8.320;2022-08-18T08:08:46;68.43;;;62.55;;
17812;SDS011;9030;50.792;8.320;2022-08-18T08:11:27;73.93;;;67.72;;
17812;SDS011;9030;50.792;8.320;2022-08-18T08:14:05;79.22;;;72.32;;
17812;SDS011;9030;50.792;8.320;2022-08-18T08:16:42;73.85;;;67.72;;
17812;SDS011;9030;50.792;8.320;2022-08-18T08:19:33;82.40;;;75.45;;
17812;SDS011;9030;50.792;8.320;2022-08-18T08:22:15;72.68;;;66.35;;
17812;SDS011;9030;50.792;8.320;2022-08-18T08:24:48;75.22;;;68.50;;
17812;SDS011;9030;50.792;8.320;2022-08-18T08:27:27;71.70;;;65.47;;
17812;SDS011;9030;50.792;8.320;2022-08-18T08:30:03;73.03;;;66.78;;
17812;SDS011;9030;50.792;8.320;2022-08-18T08:32:33;77.53;;;70.72;;
17812;SDS011;9030;50.792;8.320;2022-08-18T08:35:03;73.43;;;67.03;;
17812;SDS011;9030;50.792;8.320;2022-08-18T08:37:35;75.70;;;69.43;;
17812;SDS011;9030;50.792;8.320;2022-08-18T08:40:11;72.30;;;66.30;;
17812;SDS011;9030;50.792;8.320;2022-08-18T08:42:46;74.50;;;67.90;;
17812;SDS011;9030;50.792;8.320;2022-08-18T08:45:20;76.35;;;69.88;;
17812;SDS011;9030;50.792;8.320;2022-08-18T08:47:54;69.40;;;63.10;;
17812;SDS011;9030;50.792;8.320;2022-08-18T08:50:26;73.82;;;67.47;;
17812;SDS011;9030;50.792;8.320;2022-08-18T08:52:56;65.55;;;60.25;;
17812;SDS011;9030;50.792;8.320;2022-08-18T08:55:28;68.65;;;63.28;;
17812;SDS011;9030;50.792;8.320;2022-08-18T08:58:04;61.70;;;56.60;;
17812;SDS011;9030;50.792;8.320;2022-08-18T09:00:40;65.57;;;60.50;;
17812;SDS011;9030;50.792;8.320;2022-08-18T09:03:11;58.75;;;54.05;;
17812;SDS011;9030;50.792;8.320;2022-08-18T09:05:53;62.33;;;56.85;;
17812;SDS011;9030;50.792;8.320;2022-08-18T09:08:31;59.72;;;54.97;;
17812;SDS011;9030;50.792;8.320;2022-08-18T09:11:16;59.40;;;54.60;;
17812;SDS011;9030;50.792;8.320;2022-08-18T09:14:01;54.53;;;50.13;;
17812;SDS011;9030;50.792;8.320;2022-08-18T09:16:53;54.15;;;49.50;;
17812;SDS011;9030;50.792;8.320;2022-08-18T09:20:01;54.20;;;49.70;;
17812;SDS011;9030;50.792;8.320;2022-08-18T09:22:40;53.83;;;49.47;;
17812;SDS011;9030;50.792;8.320;2022-08-18T09:28:16;50.20;;;46.15;;
17812;SDS011;9030;50.792;8.320;2022-08-18T09:31:14;50.60;;;46.70;;
17812;SDS011;9030;50.792;8.320;2022-08-18T09:33:54;51.42;;;47.40;;
17812;SDS011;9030;50.792;8.320;2022-08-18T09:36:49;46.08;;;42.47;;
17812;SDS011;9030;50.792;8.320;2022-08-18T09:39:28;48.83;;;44.95;;
17812;SDS011;9030;50.792;8.320;2022-08-18T09:42:25;44.78;;;41.20;;
17812;SDS011;9030;50.792;8.320;2022-08-18T09:45:34;42.05;;;38.60;;
17812;SDS011;9030;50.792;8.320;2022-08-18T09:48:28;40.17;;;36.67;;
17812;SDS011;9030;50.792;8.320;2022-08-18T09:57:06;44.28;;;40.60;;
17812;SDS011;9030;50.792;8.320;2022-08-18T09:59:57;38.05;;;35.03;;
17812;SDS011;9030;50.792;8.320;2022-08-18T10:06:04;35.95;;;32.88;;
17812;SDS011;9030;50.792;8.320;2022-08-18T10:09:00;35.38;;;32.47;;
17812;SDS011;9030;50.792;8.320;2022-08-18T10:11:49;38.20;;;35.03;;
17812;SDS011;9030;50.792;8.320;2022-08-18T10:14:50;40.97;;;37.65;;
17812;SDS011;9030;50.792;8.320;2022-08-18T10:17:49;36.53;;;33.47;;
17812;SDS011;9030;50.792;8.320;2022-08-18T10:21:06;39.80;;;36.45;;
17812;SDS011;9030;50.792;8.320;2022-08-18T10:23:54;36.13;;;33.25;;
17812;SDS011;9030;50.792;8.320;2022-08-18T10:38:26;32.10;;;29.25;;
17812;SDS011;9030;50.792;8.320;2022-08-18T10:41:04;33.75;;;30.85;;
17812;SDS011;9030;50.792;8.320;2022-08-18T10:43:41;29.65;;;27.30;;
17812;SDS011;9030;50.792;8.320;2022-08-18T10:46:20;33.08;;;30.50;;
17812;SDS011;9030;50.792;8.320;2022-08-18T10:49:04;30.95;;;28.33;;
17812;SDS011;9030;50.792;8.320;2022-08-18T10:51:57;31.08;;;28.50;;
17812;SDS011;9030;50.792;8.320;2022-08-18T10:54:51;32.10;;;29.63;;
17812;SDS011;9030;50.792;8.320;2022-08-18T10:57:42;30.23;;;27.75;;
17812;SDS011;9030;50.792;8.320;2022-08-18T11:00:34;32.13;;;29.52;;
17812;SDS011;9030;50.792;8.320;2022-08-18T11:03:15;31.42;;;28.92;;
17812;SDS011;9030;50.792;8.320;2022-08-18T11:06:01;31.50;;;28.52;;
17812;SDS011;9030;50.792;8.320;2022-08-18T11:08:33;29.27;;;26.85;;
17812;SDS011;9030;50.792;8.320;2022-08-18T11:11:09;29.45;;;27.10;;
17812;SDS011;9030;50.792;8.320;2022-08-18T11:13:51;31.42;;;28.63;;
17812;SDS011;9030;50.792;8.320;2022-08-18T11:16:35;30.08;;;27.33;;
17812;SDS011;9030;50.792;8.320;2022-08-18T11:19:16;28.30;;;26.05;;
17812;SDS011;9030;50.792;8.320;2022-08-18T11:21:52;30.33;;;27.83;;
17812;SDS011;9030;50.792;8.320;2022-08-18T11:24:42;32.10;;;29.65;;
17812;SDS011;9030;50.792;8.320;2022-08-18T11:27:34;28.98;;;26.50;;
17812;SDS011;9030;50.792;8.320;2022-08-18T11:30:15;29.95;;;27.42;;
17812;SDS011;9030;50.792;8.320;2022-08-18T11:32:51;30.35;;;27.98;;
17812;SDS011;9030;50.792;8.320;2022-08-18T11:35:43;30.48;;;28.02;;
17812;SDS011;9030;50.792;8.320;2022-08-18T11:38:31;25.63;;;23.52;;
17812;SDS011;9030;50.792;8.320;2022-08-18T11:41:09;27.77;;;25.58;;
17812;SDS011;9030;50.792;8.320;2022-08-18T11:43:55;25.83;;;23.52;;
17812;SDS011;9030;50.792;8.320;2022-08-18T11:46:27;25.73;;;23.50;;
17812;SDS011;9030;50.792;8.320;2022-08-18T11:49:29;26.20;;;23.95;;
17812;SDS011;9030;50.792;8.320;2022-08-18T11:52:18;25.58;;;23.27;;
17812;SDS011;9030;50.792;8.320;2022-08-18T11:55:16;28.77;;;26.48;;
17812;SDS011;9030;50.792;8.320;2022-08-18T11:58:03;27.92;;;25.63;;
17812;SDS011;9030;50.792;8.320;2022-08-18T12:00:58;30.08;;;27.65;;
17812;SDS011;9030;50.792;8.320;2022-08-18T12:03:30;29.05;;;26.75;;
17812;SDS011;9030;50.792;8.320;2022-08-18T12:06:08;30.35;;;27.83;;
17812;SDS011;9030;50.792;8.320;2022-08-18T12:08:47;28.23;;;25.85;;
17812;SDS011;9030;50.792;8.320;2022-08-18T12:11:18;28.58;;;26.15;;
17812;SDS011;9030;50.792;8.320;2022-08-18T12:13:46;28.13;;;25.83;;
17812;SDS011;9030;50.792;8.320;2022-08-18T12:16:32;27.98;;;25.70;;
17812;SDS011;9030;50.792;8.320;2022-08-18T12:19:00;28.00;;;25.60;;
17812;SDS011;9030;50.792;8.320;2022-08-18T12:21:27;30.00;;;27.38;;
17812;SDS011;9030;50.792;8.320;2022-08-18T12:23:54;30.48;;;27.98;;
17812;SDS011;9030;50.792;8.320;2022-08-18T12:26:21;26.33;;;24.17;;
17812;SDS011;9030;50.792;8.320;2022-08-18T12:28:47;28.10;;;25.90;;
17812;SDS011;9030;50.792;8.320;2022-08-18T12:31:14;29.02;;;26.63;;
17812;SDS011;9030;50.792;8.320;2022-08-18T12:33:42;27.77;;;25.27;;
17812;SDS011;9030;50.792;8.320;2022-08-18T12:36:09;27.35;;;25.05;;
17812;SDS011;9030;50.792;8.320;2022-08-18T12:38:36;32.97;;;30.25;;
17812;SDS011;9030;50.792;8.320;2022-08-18T12:41:10;29.08;;;26.77;;
17812;SDS011;9030;50.792;8.320;2022-08-18T12:43:39;30.65;;;28.00;;
17812;SDS011;9030;50.792;8.320;2022-08-18T12:46:06;29.15;;;26.55;;
17812;SDS011;9030;50.792;8.320;2022-08-18T12:48:33;26.55;;;24.00;;
17812;SDS011;9030;50.792;8.320;2022-08-18T12:51:03;30.25;;;27.65;;
17812;SDS011;9030;50.792;8.320;2022-08-18T12:53:31;27.85;;;25.45;;
17812;SDS011;9030;50.792;8.320;2022-08-18T12:55:58;32.78;;;30.10;;
17812;SDS011;9030;50.792;8.320;2022-08-18T12:58:26;32.10;;;29.23;;
17812;SDS011;9030;50.792;8.320;2022-08-18T13:00:53;32.15;;;29.45;;
17812;SDS011;9030;50.792;8.320;2022-08-18T13:03:20;30.45;;;27.67;;
17812;SDS011;9030;50.792;8.320;2022-08-18T13:05:47;30.90;;;28.35;;
17812;SDS011;9030;50.792;8.320;2022-08-18T13:08:16;31.13;;;28.55;;
17812;SDS011;9030;50.792;8.320;2022-08-18T13:10:44;29.83;;;27.23;;
17812;SDS011;9030;50.792;8.320;2022-08-18T13:13:12;31.92;;;29.25;;
17812;SDS011;9030;50.792;8.320;2022-08-18T13:15:40;29.33;;;26.92;;
17812;SDS011;9030;50.792;8.320;2022-08-18T13:18:07;26.92;;;24.63;;
17812;SDS011;9030;50.792;8.320;2022-08-18T13:20:35;24.35;;;22.08;;
17812;SDS011;9030;50.792;8.320;2022-08-18T13:23:02;25.67;;;23.48;;
17812;SDS011;9030;50.792;8.320;2022-08-18T13:25:30;26.60;;;24.30;;
17812;SDS011;9030;50.792;8.320;2022-08-18T13:27:57;25.92;;;23.73;;
17812;SDS011;9030;50.792;8.320;2022-08-18T13:30:24;24.60;;;22.60;;
17812;SDS011;9030;50.792;8.320;2022-08-18T13:32:51;22.67;;;20.80;;
17812;SDS011;9030;50.792;8.320;2022-08-18T13:35:19;21.95;;;19.83;;
17812;SDS011;9030;50.792;8.320;2022-08-18T13:37:46;24.23;;;22.23;;
17812;SDS011;9030;50.792;8.320;2022-08-18T13:40:12;23.73;;;21.73;;
17812;SDS011;9030;50.792;8.320;2022-08-18T13:42:41;23.35;;;21.35;;
17812;SDS011;9030;50.792;8.320;2022-08-18T13:45:11;23.02;;;21.15;;
17812;SDS011;9030;50.792;8.320;2022-08-18T13:47:38;23.00;;;21.08;;
17812;SDS011;9030;50.792;8.320;2022-08-18T13:50:06;24.65;;;22.58;;
17812;SDS011;9030;50.792;8.320;2022-08-18T13:52:34;21.80;;;20.00;;
17812;SDS011;9030;50.792;8.320;2022-08-18T13:55:02;23.00;;;20.90;;
17812;SDS011;9030;50.792;8.320;2022-08-18T13:57:29;21.75;;;19.95;;
17812;SDS011;9030;50.792;8.320;2022-08-18T13:59:58;23.42;;;21.52;;
17812;SDS011;9030;50.792;8.320;2022-08-18T14:02:25;23.65;;;21.65;;
17812;SDS011;9030;50.792;8.320;2022-08-18T14:04:51;24.08;;;21.90;;
17812;SDS011;9030;50.792;8.320;2022-08-18T14:07:20;22.45;;;20.55;;
17812;SDS011;9030;50.792;8.320;2022-08-18T14:09:47;23.17;;;21.17;;
17812;SDS011;9030;50.792;8.320;2022-08-18T14:12:15;22.27;;;20.35;;
17812;SDS011;9030;50.792;8.320;2022-08-18T14:14:43;20.67;;;18.77;;
17812;SDS011;9030;50.792;8.320;2022-08-18T14:17:11;19.88;;;18.08;;
17812;SDS011;9030;50.792;8.320;2022-08-18T14:19:38;20.63;;;18.75;;
17812;SDS011;9030;50.792;8.320;2022-08-18T14:22:22;22.90;;;20.90;;
17812;SDS011;9030;50.792;8.320;2022-08-18T14:25:07;21.60;;;19.50;;
17812;SDS011;9030;50.792;8.320;2022-08-18T14:27:51;25.65;;;23.38;;
17812;SDS011;9030;50.792;8.320;2022-08-18T14:30:18;21.40;;;19.50;;
17812;SDS011;9030;50.792;8.320;2022-08-18T14:32:46;22.02;;;19.60;;
17812;SDS011;9030;50.792;8.320;2022-08-18T14:35:13;21.30;;;19.48;;
17812;SDS011;9030;50.792;8.320;2022-08-18T14:37:40;20.88;;;19.08;;
17812;SDS011;9030;50.792;8.320;2022-08-18T14:40:08;24.20;;;21.92;;
17812;SDS011;9030;50.792;8.320;2022-08-18T14:42:35;23.20;;;21.02;;
17812;SDS011;9030;50.792;8.320;2022-08-18T14:45:03;21.95;;;20.00;;
17812;SDS011;9030;50.792;8.320;2022-08-18T14:47:31;23.58;;;21.58;;
17812;SDS011;9030;50.792;8.320;2022-08-18T14:49:59;23.83;;;21.77;;
17812;SDS011;9030;50.792;8.320;2022-08-18T14:52:27;26.65;;;24.35;;
17812;SDS011;9030;50.792;8.320;2022-08-18T14:54:54;26.20;;;23.75;;
17812;SDS011;9030;50.792;8.320;2022-08-18T14:57:20;24.27;;;22.08;;
17812;SDS011;9030;50.792;8.320;2022-08-18T14:59:47;24.98;;;22.77;;
17812;SDS011;9030;50.792;8.320;2022-08-18T15:02:14;24.75;;;22.38;;
17812;SDS011;9030;50.792;8.320;2022-08-18T15:04:41;28.73;;;26.25;;
17812;SDS011;9030;50.792;8.320;2022-08-18T15:07:10;26.27;;;23.80;;
17812;SDS011;9030;50.792;8.320;2022-08-18T15:09:37;26.70;;;24.17;;
17812;SDS011;9030;50.792;8.320;2022-08-18T15:12:03;23.23;;;21.15;;
17812;SDS011;9030;50.792;8.320;2022-08-18T15:14:32;27.08;;;24.55;;
17812;SDS011;9030;50.792;8.320;2022-08-18T15:17:00;23.48;;;21.13;;
17812;SDS011;9030;50.792;8.320;2022-08-18T15:19:30;27.92;;;25.55;;
17812;SDS011;9030;50.792;8.320;2022-08-18T15:21:57;25.83;;;23.52;;
17812;SDS011;9030;50.792;8.320;2022-08-18T15:24:43;27.75;;;24.77;;
17812;SDS011;9030;50.792;8.320;2022-08-18T15:27:31;23.67;;;21.58;;
17812;SDS011;9030;50.792;8.320;2022-08-18T15:30:00;24.58;;;22.52;;
17812;SDS011;9030;50.792;8.320;2022-08-18T15:32:28;24.30;;;21.98;;